Time;durP1;ratioP1;P1;durP2;ratioP2;P2;SDS_P1;SDS_P2;PMS_P1;PMS_P2;Temp;Humidity;BMP_temperature;BMP_pressure;BME280_temperature;BME280_humidity;BME280_pressure;Samples;Min_cycle;Max_cycle;Signal;HPM_P1;HPM_P2
2021/12/23 00:01:39;;;;;;;24.98;12.02;;;;;;;;;;4862357;29;20120;-88
2021/12/23 00:30:45;;;;;;;22.23;12.25;;;;;;;;;;4855277;29;20061;-88
2021/12/23 00:33:13;;;;;;;22.63;12.15;;;;;;;;;;4843248;29;20371;-86
2021/12/23 00:35:39;;;;;;;22.02;12.18;;;;;;;;;;4863540;29;21337;-85
2021/12/23 00:38:13;;;;;;;22.10;12.10;;;;;;;;;;4841756;29;20034;-86
2021/12/23 00:40:39;;;;;;;22.67;12.38;;;;;;;;;;4853802;29;20061;-88
2021/12/23 00:43:04;;;;;;;20.77;11.50;;;;;;;;;;4858431;29;20543;-84
2021/12/23 00:45:29;;;;;;;22.02;12.40;;;;;;;;;;4857509;29;20025;-85
2021/12/23 00:47:55;;;;;;;22.38;12.25;;;;;;;;;;4842011;29;20400;-89
2021/12/23 00:50:21;;;;;;;25.95;12.45;;;;;;;;;;4849230;29;20037;-87
2021/12/23 00:52:54;;;;;;;21.42;12.68;;;;;;;;;;4843642;29;20031;-86
2021/12/23 00:55:20;;;;;;;23.05;12.00;;;;;;;;;;4844179;29;20505;-85
2021/12/23 00:57:45;;;;;;;21.77;10.60;;;;;;;;;;4847199;29;20069;-84
2021/12/23 01:00:15;;;;;;;22.55;12.07;;;;;;;;;;4845700;29;20117;-85
2021/12/23 01:02:45;;;;;;;21.00;12.15;;;;;;;;;;4843487;29;21594;-89
2021/12/23 01:05:12;;;;;;;21.85;11.85;;;;;;;;;;4844939;29;20025;-86
2021/12/23 01:07:38;;;;;;;20.90;11.75;;;;;;;;;;4831897;29;20034;-85
2021/12/23 01:10:04;;;;;;;25.50;13.43;;;;;;;;;;4830497;29;20116;-85
2021/12/23 01:12:36;;;;;;;24.40;12.23;;;;;;;;;;4834949;29;20025;-85
2021/12/23 01:15:16;;;;;;;22.35;12.00;;;;;;;;;;4826001;29;20030;-85
2021/12/23 01:17:56;;;;;;;22.73;11.90;;;;;;;;;;4833183;29;20117;-89
2021/12/23 01:20:29;;;;;;;22.05;11.48;;;;;;;;;;4831635;29;20032;-85
2021/12/23 01:23:03;;;;;;;21.33;11.80;;;;;;;;;;4849214;29;20502;-85
2021/12/23 01:25:30;;;;;;;21.55;12.23;;;;;;;;;;4836659;29;20175;-89
2021/12/23 01:27:56;;;;;;;22.50;12.43;;;;;;;;;;4840489;29;20063;-85
2021/12/23 01:30:21;;;;;;;20.13;10.95;;;;;;;;;;4839934;29;20512;-85
2021/12/23 01:32:48;;;;;;;24.38;12.75;;;;;;;;;;4830467;29;20429;-85
2021/12/23 01:35:15;;;;;;;22.48;12.68;;;;;;;;;;4840068;29;20049;-88
2021/12/23 01:37:41;;;;;;;24.30;12.52;;;;;;;;;;4840458;29;20034;-88
2021/12/23 01:40:08;;;;;;;21.73;12.25;;;;;;;;;;4840773;29;20040;-85
2021/12/23 01:42:34;;;;;;;23.13;12.23;;;;;;;;;;4846283;29;20029;-85
2021/12/23 01:44:59;;;;;;;25.52;13.27;;;;;;;;;;4840943;29;20102;-85
2021/12/23 01:47:25;;;;;;;21.38;12.27;;;;;;;;;;4827946;29;20030;-85
2021/12/23 01:49:51;;;;;;;21.88;13.30;;;;;;;;;;4837996;29;20113;-86
2021/12/23 01:52:17;;;;;;;21.52;12.57;;;;;;;;;;4827792;29;20033;-85
2021/12/23 01:54:43;;;;;;;20.95;12.27;;;;;;;;;;4840815;29;20033;-88
2021/12/23 01:57:09;;;;;;;24.10;12.48;;;;;;;;;;4829875;29;20490;-85
2021/12/23 01:59:35;;;;;;;24.48;13.10;;;;;;;;;;4827061;29;20082;-86
2021/12/23 02:02:01;;;;;;;23.05;12.90;;;;;;;;;;4846274;29;20038;-85
2021/12/23 02:04:26;;;;;;;20.88;11.85;;;;;;;;;;4826920;29;20041;-85
2021/12/23 02:06:51;;;;;;;21.27;11.75;;;;;;;;;;4823717;29;20080;-84
2021/12/23 02:09:18;;;;;;;21.90;12.90;;;;;;;;;;4843005;29;20033;-88
2021/12/23 02:11:44;;;;;;;24.42;12.13;;;;;;;;;;4824223;29;20129;-86
2021/12/23 02:14:09;;;;;;;23.77;13.18;;;;;;;;;;4842723;29;20026;-86
2021/12/23 02:16:35;;;;;;;21.88;12.35;;;;;;;;;;4826631;29;20049;-84
2021/12/23 02:19:03;;;;;;;22.38;11.50;;;;;;;;;;4826127;29;20461;-85
2021/12/23 02:21:29;;;;;;;23.13;11.82;;;;;;;;;;4840449;29;20034;-86
2021/12/23 02:23:54;;;;;;;22.10;12.20;;;;;;;;;;4823564;29;20060;-88
2021/12/23 02:26:19;;;;;;;24.27;12.90;;;;;;;;;;4838061;29;20068;-85
2021/12/23 02:28:45;;;;;;;25.02;12.75;;;;;;;;;;4828783;29;20056;-85
2021/12/23 02:31:10;;;;;;;20.52;12.23;;;;;;;;;;4838994;29;20041;-85
2021/12/23 02:33:36;;;;;;;23.25;12.82;;;;;;;;;;4836833;29;20030;-88
2021/12/23 02:36:02;;;;;;;22.23;12.02;;;;;;;;;;4839668;29;20081;-85
2021/12/23 02:38:27;;;;;;;22.52;12.80;;;;;;;;;;4842630;29;20426;-86
2021/12/23 02:40:53;;;;;;;21.77;11.77;;;;;;;;;;4840738;29;20034;-85
2021/12/23 02:43:22;;;;;;;20.10;12.52;;;;;;;;;;4839903;29;20124;-87
2021/12/23 02:45:50;;;;;;;23.20;12.85;;;;;;;;;;4837472;29;20046;-85
2021/12/23 02:48:21;;;;;;;25.40;13.63;;;;;;;;;;4842542;29;20029;-88
2021/12/23 02:50:49;;;;;;;23.05;12.13;;;;;;;;;;4838849;29;20113;-88
2021/12/23 02:53:15;;;;;;;23.42;12.18;;;;;;;;;;4840342;29;20493;-84
2021/12/23 02:55:41;;;;;;;23.45;12.02;;;;;;;;;;4843003;29;20034;-84
2021/12/23 02:58:06;;;;;;;22.38;12.30;;;;;;;;;;4839137;29;20033;-86
2021/12/23 03:00:33;;;;;;;24.23;12.63;;;;;;;;;;4838975;29;20125;-88
2021/12/23 03:02:58;;;;;;;23.08;11.93;;;;;;;;;;4837219;29;20419;-88
2021/12/23 03:05:24;;;;;;;24.27;12.93;;;;;;;;;;4843830;29;20090;-85
2021/12/23 03:07:49;;;;;;;21.45;12.70;;;;;;;;;;4840224;29;20067;-86
2021/12/23 03:10:15;;;;;;;23.70;12.40;;;;;;;;;;4838103;29;20621;-85
2021/12/23 03:12:41;;;;;;;22.63;11.98;;;;;;;;;;4842035;29;20073;-85
2021/12/23 03:15:08;;;;;;;23.13;12.65;;;;;;;;;;4844851;29;20117;-86
2021/12/23 03:17:34;;;;;;;22.27;12.80;;;;;;;;;;4854816;29;20090;-88
2021/12/23 03:20:00;;;;;;;21.50;12.25;;;;;;;;;;4836019;29;20033;-86
2021/12/23 03:22:25;;;;;;;21.02;12.32;;;;;;;;;;4838018;29;20045;-85
2021/12/23 03:24:51;;;;;;;22.88;12.27;;;;;;;;;;4838222;29;20038;-86
2021/12/23 03:27:16;;;;;;;25.92;12.63;;;;;;;;;;4844643;29;20428;-88
2021/12/23 03:29:42;;;;;;;22.45;12.70;;;;;;;;;;4838382;29;20058;-85
2021/12/23 03:32:07;;;;;;;22.95;13.02;;;;;;;;;;4841921;29;20112;-86
2021/12/23 03:34:33;;;;;;;24.08;13.68;;;;;;;;;;4840392;29;20042;-87
2021/12/23 03:36:58;;;;;;;23.95;13.50;;;;;;;;;;4853245;29;20406;-85
2021/12/23 03:39:24;;;;;;;23.40;12.75;;;;;;;;;;4838190;29;20395;-86
2021/12/23 03:41:49;;;;;;;23.67;12.23;;;;;;;;;;4839051;29;20117;-84
2021/12/23 03:44:15;;;;;;;22.73;12.13;;;;;;;;;;4837681;29;20037;-86
2021/12/23 03:46:41;;;;;;;21.27;12.23;;;;;;;;;;4834747;29;20094;-87
2021/12/23 03:49:08;;;;;;;23.45;13.18;;;;;;;;;;4840648;29;20034;-87
2021/12/23 03:51:33;;;;;;;23.52;13.38;;;;;;;;;;4851852;29;20034;-85
2021/12/23 03:53:59;;;;;;;22.02;12.52;;;;;;;;;;4838623;29;20042;-85
2021/12/23 03:56:24;;;;;;;22.40;13.05;;;;;;;;;;4839809;29;20038;-85
2021/12/23 03:58:50;;;;;;;24.42;13.00;;;;;;;;;;4835939;29;20487;-85
2021/12/23 04:01:15;;;;;;;21.40;12.57;;;;;;;;;;4832088;29;20026;-86
2021/12/23 04:03:41;;;;;;;21.13;11.85;;;;;;;;;;4838980;29;20049;-85
2021/12/23 04:06:09;;;;;;;22.38;12.98;;;;;;;;;;4839326;29;20128;-86
2021/12/23 04:08:35;;;;;;;24.17;13.70;;;;;;;;;;4837103;29;20045;-87
2021/12/23 04:11:01;;;;;;;24.42;13.75;;;;;;;;;;4835328;29;20093;-87
2021/12/23 04:13:27;;;;;;;25.27;13.80;;;;;;;;;;4837231;29;20447;-86
2021/12/23 04:15:52;;;;;;;23.33;14.00;;;;;;;;;;4840016;29;20057;-85
2021/12/23 04:18:18;;;;;;;24.40;14.10;;;;;;;;;;4819515;29;20030;-87
2021/12/23 04:20:53;;;;;;;28.67;13.02;;;;;;;;;;4838862;29;20029;-86
2021/12/23 04:23:20;;;;;;;25.35;13.25;;;;;;;;;;4834163;29;20041;-89
2021/12/23 04:25:45;;;;;;;28.52;14.45;;;;;;;;;;4833030;29;20027;-84
2021/12/23 04:28:11;;;;;;;25.88;13.85;;;;;;;;;;4834671;29;20099;-86
2021/12/23 04:30:36;;;;;;;24.75;13.75;;;;;;;;;;4835855;29;20054;-86
2021/12/23 04:33:01;;;;;;;23.45;13.90;;;;;;;;;;4824844;29;20037;-85
2021/12/23 04:35:27;;;;;;;22.58;13.18;;;;;;;;;;4837446;29;20029;-86
2021/12/23 04:37:52;;;;;;;27.42;14.63;;;;;;;;;;4823666;29;20066;-86
2021/12/23 04:40:18;;;;;;;26.15;13.98;;;;;;;;;;4826545;29;20069;-86
2021/12/23 04:42:44;;;;;;;23.05;13.93;;;;;;;;;;4824520;29;20097;-85
2021/12/23 04:45:09;;;;;;;23.23;13.55;;;;;;;;;;4828141;29;20081;-88
2021/12/23 04:47:36;;;;;;;23.05;12.38;;;;;;;;;;4832143;29;20053;-86
2021/12/23 04:50:03;;;;;;;24.73;14.00;;;;;;;;;;4838538;29;20033;-86
2021/12/23 04:52:28;;;;;;;22.63;13.77;;;;;;;;;;4841787;29;20124;-86
2021/12/23 04:54:54;;;;;;;21.70;12.65;;;;;;;;;;4833561;29;20129;-86
2021/12/23 04:57:22;;;;;;;27.15;14.48;;;;;;;;;;4830914;29;20080;-86
2021/12/23 04:59:47;;;;;;;23.40;13.63;;;;;;;;;;4826291;29;20027;-86
2021/12/23 05:02:13;;;;;;;24.48;13.88;;;;;;;;;;4825046;29;20029;-85
2021/12/23 05:04:38;;;;;;;27.10;13.95;;;;;;;;;;4829594;29;20032;-89
2021/12/23 05:07:04;;;;;;;25.60;14.50;;;;;;;;;;4841424;29;20097;-85
2021/12/23 05:09:29;;;;;;;25.45;14.32;;;;;;;;;;4828544;29;20033;-88
2021/12/23 05:11:54;;;;;;;24.67;13.68;;;;;;;;;;4830805;29;20057;-88
2021/12/23 05:14:20;;;;;;;25.98;13.02;;;;;;;;;;4831563;29;20537;-85
2021/12/23 05:16:45;;;;;;;22.92;12.40;;;;;;;;;;4830443;29;20402;-87
2021/12/23 05:19:10;;;;;;;28.17;14.73;;;;;;;;;;4833969;29;20038;-87
2021/12/23 05:21:36;;;;;;;21.58;13.43;;;;;;;;;;4841549;29;20165;-86
2021/12/23 05:24:01;;;;;;;24.73;13.18;;;;;;;;;;4829230;29;20057;-86
2021/12/23 05:26:27;;;;;;;28.20;14.13;;;;;;;;;;4837538;29;20065;-85
2021/12/23 05:28:52;;;;;;;28.58;14.48;;;;;;;;;;4836312;29;20144;-87
2021/12/23 05:31:18;;;;;;;24.38;14.05;;;;;;;;;;4830198;29;20687;-86
2021/12/23 05:33:43;;;;;;;26.88;14.57;;;;;;;;;;4821431;29;20029;-85
2021/12/23 05:36:08;;;;;;;26.10;15.13;;;;;;;;;;4826355;29;20038;-86
2021/12/23 05:38:34;;;;;;;26.25;14.52;;;;;;;;;;4830372;29;20038;-85
2021/12/23 05:40:59;;;;;;;24.70;14.35;;;;;;;;;;4839399;29;20033;-88
2021/12/23 05:43:25;;;;;;;25.38;14.10;;;;;;;;;;4841870;29;20070;-86
2021/12/23 05:45:50;;;;;;;26.77;13.70;;;;;;;;;;4837253;29;20029;-87
2021/12/23 05:48:16;;;;;;;26.55;14.82;;;;;;;;;;4843977;29;20083;-87
2021/12/23 05:50:41;;;;;;;25.13;14.27;;;;;;;;;;4823408;29;20522;-88
2021/12/23 05:53:07;;;;;;;26.20;13.48;;;;;;;;;;4828915;29;20443;-86
2021/12/23 05:55:32;;;;;;;28.15;14.30;;;;;;;;;;4827531;29;20435;-85
2021/12/23 05:57:58;;;;;;;27.13;13.43;;;;;;;;;;4832180;29;20116;-87
2021/12/23 06:00:31;;;;;;;25.73;14.32;;;;;;;;;;4826350;29;20064;-86
2021/12/23 06:02:56;;;;;;;;;;;;;;;;;;4830972;29;20026;-87
2021/12/23 06:05:23;;;;;;;25.02;13.73;;;;;;;;;;4831053;29;20295;-84
2021/12/23 06:07:48;;;;;;;29.60;14.45;;;;;;;;;;4827658;29;20068;-86
2021/12/23 06:10:14;;;;;;;25.92;14.65;;;;;;;;;;4840302;29;20050;-86
2021/12/23 06:12:40;;;;;;;29.05;14.43;;;;;;;;;;4842063;29;20485;-86
2021/12/23 06:15:07;;;;;;;30.65;16.52;;;;;;;;;;4829560;29;20063;-85
2021/12/23 06:17:32;;;;;;;27.80;15.10;;;;;;;;;;4826391;29;20071;-89
2021/12/23 06:19:58;;;;;;;24.45;13.60;;;;;;;;;;4838403;29;20065;-86
2021/12/23 06:22:24;;;;;;;28.95;14.52;;;;;;;;;;4841271;29;20048;-85
2021/12/23 06:24:50;;;;;;;29.20;15.23;;;;;;;;;;4842324;29;20523;-86
2021/12/23 06:27:17;;;;;;;25.52;15.18;;;;;;;;;;4823448;29;20063;-88
2021/12/23 06:29:42;;;;;;;29.55;16.15;;;;;;;;;;4834951;29;20058;-86
2021/12/23 06:32:09;;;;;;;31.58;16.13;;;;;;;;;;4836968;29;20135;-86
2021/12/23 06:34:35;;;;;;;30.67;15.18;;;;;;;;;;4838308;29;20042;-87
2021/12/23 06:37:01;;;;;;;28.95;14.55;;;;;;;;;;4839204;29;20391;-86
2021/12/23 06:39:27;;;;;;;30.77;16.33;;;;;;;;;;4842426;29;20041;-85
2021/12/23 06:41:52;;;;;;;31.27;16.02;;;;;;;;;;4839094;29;20041;-87
2021/12/23 06:44:18;;;;;;;30.70;16.25;;;;;;;;;;4841512;29;20487;-88
2021/12/23 06:46:43;;;;;;;33.85;16.33;;;;;;;;;;4838785;29;20478;-85
2021/12/23 06:49:08;;;;;;;32.17;16.58;;;;;;;;;;4838330;29;20490;-85
2021/12/23 06:51:34;;;;;;;28.75;14.43;;;;;;;;;;4837001;29;20044;-85
2021/12/23 06:54:01;;;;;;;32.22;16.15;;;;;;;;;;4836545;29;20113;-85
2021/12/23 06:56:27;;;;;;;31.65;16.65;;;;;;;;;;4842005;29;20086;-86
2021/12/23 06:58:52;;;;;;;33.15;15.98;;;;;;;;;;4836981;29;20474;-87
2021/12/23 07:01:20;;;;;;;34.08;17.25;;;;;;;;;;4838982;29;20121;-87
2021/12/23 07:04:36;;;;;;;31.00;16.17;;;;;;;;;;4838250;29;20065;-88
2021/12/23 07:06:36;;;;;;;32.85;16.40;;;;;;;;;;4828646;29;20045;-85
2021/12/23 07:09:04;;;;;;;29.55;15.20;;;;;;;;;;4838395;29;20037;-88
2021/12/23 07:11:30;;;;;;;30.02;16.45;;;;;;;;;;4837901;29;20459;-88
2021/12/23 07:13:56;;;;;;;30.80;15.38;;;;;;;;;;4839061;29;20041;-86
2021/12/23 07:16:21;;;;;;;32.50;16.40;;;;;;;;;;4839914;29;20094;-86
2021/12/23 07:18:48;;;;;;;30.30;15.10;;;;;;;;;;4837984;29;20094;-85
2021/12/23 07:21:13;;;;;;;33.83;16.17;;;;;;;;;;4838833;29;20026;-85
2021/12/23 07:23:39;;;;;;;28.05;14.75;;;;;;;;;;4838288;29;20522;-86
2021/12/23 07:26:04;;;;;;;29.17;15.88;;;;;;;;;;4836939;29;20138;-86
2021/12/23 07:28:29;;;;;;;32.53;16.75;;;;;;;;;;4839350;29;20037;-86
2021/12/23 07:30:55;;;;;;;39.17;17.45;;;;;;;;;;4838599;29;20054;-88
2021/12/23 07:33:21;;;;;;;34.58;17.13;;;;;;;;;;4822518;29;20033;-86
2021/12/23 07:35:48;;;;;;;30.02;16.20;;;;;;;;;;4828610;29;20034;-86
2021/12/23 07:38:13;;;;;;;31.73;16.30;;;;;;;;;;4828505;29;20049;-88
2021/12/23 07:40:40;;;;;;;31.42;16.50;;;;;;;;;;4841927;29;20462;-85
2021/12/23 07:43:31;;;;;;;32.78;16.17;;;;;;;;;;4825696;29;20021;-86
2021/12/23 07:45:58;;;;;;;33.40;16.20;;;;;;;;;;4838469;29;20125;-86
2021/12/23 07:48:23;;;;;;;31.98;16.63;;;;;;;;;;4836290;29;20030;-86
2021/12/23 07:50:48;;;;;;;28.95;14.95;;;;;;;;;;4828139;29;20030;-86
2021/12/23 07:53:14;;;;;;;36.42;17.33;;;;;;;;;;4839163;29;20120;-88
2021/12/23 07:55:42;;;;;;;35.13;16.88;;;;;;;;;;4824644;29;20034;-86
2021/12/23 07:58:08;;;;;;;33.42;16.95;;;;;;;;;;4830661;29;20030;-88
2021/12/23 08:00:34;;;;;;;33.33;16.05;;;;;;;;;;4835908;29;20093;-85
2021/12/23 08:02:59;;;;;;;35.58;16.45;;;;;;;;;;4828653;29;20030;-85
2021/12/23 08:05:24;;;;;;;35.28;16.70;;;;;;;;;;4822787;29;20046;-86
2021/12/23 08:07:50;;;;;;;30.60;16.15;;;;;;;;;;4831934;29;20061;-85
2021/12/23 08:10:16;;;;;;;35.22;17.25;;;;;;;;;;4822453;29;21359;-85
2021/12/23 08:12:41;;;;;;;37.40;18.52;;;;;;;;;;4816471;29;20037;-87
2021/12/23 08:15:07;;;;;;;29.85;15.88;;;;;;;;;;4820003;29;20558;-86
2021/12/23 08:17:32;;;;;;;31.40;16.17;;;;;;;;;;4827472;29;20041;-88
2021/12/23 08:19:58;;;;;;;33.22;16.67;;;;;;;;;;4824950;29;20026;-86
2021/12/23 08:22:23;;;;;;;32.83;16.67;;;;;;;;;;4822938;29;20045;-86
2021/12/23 08:24:49;;;;;;;32.72;15.98;;;;;;;;;;4819647;29;20066;-85
2021/12/23 08:27:14;;;;;;;29.48;14.82;;;;;;;;;;4825309;29;20040;-88
2021/12/23 08:29:39;;;;;;;32.08;16.75;;;;;;;;;;4836047;29;20079;-86
2021/12/23 08:32:05;;;;;;;33.47;16.23;;;;;;;;;;4832322;29;20029;-86
2021/12/23 08:34:34;;;;;;;31.63;16.45;;;;;;;;;;4814493;29;20042;-88
2021/12/23 08:37:00;;;;;;;32.95;16.77;;;;;;;;;;4813040;29;20034;-86
2021/12/23 08:39:32;;;;;;;32.95;15.27;;;;;;;;;;4818308;29;20099;-86
2021/12/23 08:42:01;;;;;;;30.33;14.73;;;;;;;;;;4825074;29;20026;-86
2021/12/23 08:44:33;;;;;;;29.65;15.30;;;;;;;;;;4842286;29;20044;-85
2021/12/23 08:47:02;;;;;;;34.65;16.00;;;;;;;;;;4821196;29;20034;-84
2021/12/23 08:53:04;;;;;;;31.75;14.48;;;;;;;;;;4843973;29;20045;-86
2021/12/23 08:55:35;;;;;;;29.60;15.05;;;;;;;;;;4836092;29;20030;-84
2021/12/23 09:01:16;;;;;;;;;;;;;;;;;;;;;
2021/12/23 09:04:04;;;;;;;33.67;16.35;;;;;;;;;;4802204;29;20052;-86
2021/12/23 09:06:36;;;;;;;31.77;16.15;;;;;;;;;;4936491;23;20065;-85
2021/12/23 09:09:06;;;;;;;31.98;16.08;;;;;;;;;;4860927;29;20111;-89
2021/12/23 09:11:37;;;;;;;31.67;15.50;;;;;;;;;;4866521;29;20658;-88
2021/12/23 09:14:09;;;;;;;31.25;16.67;;;;;;;;;;4864314;29;20034;-85
2021/12/23 09:16:38;;;;;;;31.60;15.13;;;;;;;;;;4879188;29;20119;-85
2021/12/23 09:19:17;;;;;;;;;;;;;;;;;;;;;
2021/12/23 09:22:09;;;;;;;33.05;16.02;;;;;;;;;;4821393;29;20041;-85
2021/12/23 09:24:41;;;;;;;31.52;15.65;;;;;;;;;;4858998;29;20032;-88
2021/12/23 09:33:10;;;;;;;31.30;15.13;;;;;;;;;;4860533;29;20080;-86
2021/12/23 09:38:40;;;;;;;32.22;16.40;;;;;;;;;;4837854;29;20041;-89
2021/12/23 09:41:16;;;;;;;30.80;15.77;;;;;;;;;;4865614;29;20017;-88
2021/12/23 09:43:42;;;;;;;31.02;14.93;;;;;;;;;;4869509;29;20113;-85
2021/12/23 09:46:14;;;;;;;34.53;18.10;;;;;;;;;;4856894;29;20030;-84
2021/12/23 09:48:45;;;;;;;35.20;17.25;;;;;;;;;;4853035;29;20037;-84
2021/12/23 09:51:16;;;;;;;31.98;15.85;;;;;;;;;;4855075;29;20048;-85
2021/12/23 09:53:43;;;;;;;33.10;15.73;;;;;;;;;;4854857;29;20049;-87
2021/12/23 09:56:11;;;;;;;31.75;16.90;;;;;;;;;;4853238;29;20101;-85
2021/12/23 09:58:38;;;;;;;32.53;16.73;;;;;;;;;;4851565;29;20037;-84
2021/12/23 10:01:06;;;;;;;33.30;16.73;;;;;;;;;;4839838;29;20097;-85
2021/12/23 10:03:33;;;;;;;31.45;16.65;;;;;;;;;;4853245;29;20037;-84
2021/12/23 10:05:59;;;;;;;35.33;17.42;;;;;;;;;;4859015;29;20053;-85
2021/12/23 10:08:27;;;;;;;35.28;16.42;;;;;;;;;;4851435;29;20041;-87
2021/12/23 10:11:14;;;;;;;32.97;16.20;;;;;;;;;;4868187;29;20033;-85
2021/12/23 10:28:03;;;;;;;31.30;15.63;;;;;;;;;;4866112;29;20055;-84
2021/12/23 10:30:37;;;;;;;37.13;16.92;;;;;;;;;;4861415;29;20181;-84
2021/12/23 10:33:29;;;;;;;32.28;15.57;;;;;;;;;;4866979;29;20040;-83
2021/12/23 10:38:46;;;;;;;30.02;15.38;;;;;;;;;;4863164;29;20033;-85
2021/12/23 10:41:24;;;;;;;31.45;16.05;;;;;;;;;;4866403;29;20041;-84
2021/12/23 10:43:59;;;;;;;33.40;15.80;;;;;;;;;;4877610;29;20021;-85
2021/12/23 10:46:59;;;;;;;33.03;16.83;;;;;;;;;;4851289;29;20032;-85
2021/12/23 10:49:59;;;;;;;36.35;14.82;;;;;;;;;;4852971;29;20038;-84
2021/12/23 10:52:30;;;;;;;33.10;14.82;;;;;;;;;;4853588;29;20048;-83
2021/12/23 10:58:19;;;;;;;;;;;;;;;;;;;;;
2021/12/23 11:01:01;;;;;;;35.30;15.17;;;;;;;;;;4866187;29;20033;-84
2021/12/23 11:03:38;;;;;;;31.75;14.70;;;;;;;;;;4862413;29;20032;-85
2021/12/23 11:06:31;;;;;;;34.45;16.77;;;;;;;;;;4855279;29;20071;-83
2021/12/23 11:39:26;;;;;;;31.75;15.43;;;;;;;;;;4851773;29;20124;-83
2021/12/23 11:42:01;;;;;;;35.03;16.27;;;;;;;;;;4852106;29;20029;-84
2021/12/23 11:44:30;;;;;;;31.65;16.25;;;;;;;;;;4850102;29;20392;-85
2021/12/23 11:46:57;;;;;;;32.42;14.60;;;;;;;;;;4857692;29;20038;-85
2021/12/23 11:49:23;;;;;;;31.20;15.52;;;;;;;;;;4848549;29;20524;-85
2021/12/23 11:54:19;;;;;;;32.10;16.92;;;;;;;;;;4867294;29;20052;-84
2021/12/23 11:57:01;;;;;;;34.80;17.17;;;;;;;;;;4854514;29;20042;-84
2021/12/23 11:59:36;;;;;;;34.05;17.13;;;;;;;;;;4850018;29;20918;-84
2021/12/23 12:02:38;;;;;;;29.70;15.30;;;;;;;;;;4850538;29;20037;-85
2021/12/23 12:05:07;;;;;;;33.90;16.23;;;;;;;;;;4854103;29;20072;-85
2021/12/23 12:07:35;;;;;;;31.98;15.23;;;;;;;;;;4843027;29;20060;-85
2021/12/23 12:10:12;;;;;;;28.77;14.25;;;;;;;;;;4860665;29;20056;-85
2021/12/23 12:13:09;;;;;;;32.17;16.73;;;;;;;;;;4841449;29;20033;-83
2021/12/23 12:15:37;;;;;;;36.05;15.45;;;;;;;;;;4870574;29;20047;-84
2021/12/23 12:18:37;;;;;;;35.65;15.80;;;;;;;;;;4853320;29;20537;-84
2021/12/23 12:21:41;;;;;;;30.38;14.98;;;;;;;;;;4841213;29;20044;-84
2021/12/23 12:24:09;;;;;;;34.92;17.27;;;;;;;;;;4852901;29;20537;-84
2021/12/23 12:27:25;;;;;;;;;;;;;;;;;;;;;
2021/12/23 12:30:14;;;;;;;37.00;17.38;;;;;;;;;;4866658;29;20748;-84
2021/12/23 12:32:44;;;;;;;33.60;16.00;;;;;;;;;;4849762;29;20037;-83
2021/12/23 12:35:51;;;;;;;34.50;16.40;;;;;;;;;;4850894;29;20124;-85
2021/12/23 12:38:55;;;;;;;;;;;;;;;;;;;;;
2021/12/23 12:41:39;;;;;;;31.48;14.85;;;;;;;;;;4863045;29;20044;-84
2021/12/23 12:47:48;;;;;;;27.38;13.38;;;;;;;;;;4842374;29;20125;-86
2021/12/23 12:56:40;;;;;;;31.00;15.43;;;;;;;;;;4774052;29;20098;-84
2021/12/23 12:59:17;;;;;;;28.63;14.05;;;;;;;;;;4758877;30;20115;-84
2021/12/23 13:01:56;;;;;;;;;;;;;;;;;;;;;
2021/12/23 13:05:12;;;;;;;31.25;15.57;;;;;;;;;;4875921;29;20033;-83
2021/12/23 13:07:48;;;;;;;33.28;15.88;;;;;;;;;;4849658;29;21719;-85
2021/12/23 13:10:28;;;;;;;;;;;;;;;;;;;;;
2021/12/23 13:13:49;;;;;;;29.40;14.88;;;;;;;;;;4846641;29;20037;-84
2021/12/23 13:16:44;;;;;;;30.05;14.43;;;;;;;;;;4835635;29;20186;-83
2021/12/23 13:19:53;;;;;;;33.35;15.07;;;;;;;;;;4851248;29;20134;-84
2021/12/23 13:22:22;;;;;;;30.23;15.10;;;;;;;;;;4847389;29;20049;-85
2021/12/23 13:24:53;;;;;;;36.55;15.95;;;;;;;;;;4846732;29;20084;-83
2021/12/23 13:27:19;;;;;;;32.88;15.75;;;;;;;;;;4847475;29;20454;-85
2021/12/23 13:29:48;;;;;;;29.85;14.45;;;;;;;;;;4847474;29;20040;-83
2021/12/23 13:32:16;;;;;;;29.52;14.60;;;;;;;;;;4847139;29;20876;-83
2021/12/23 13:34:52;;;;;;;29.80;14.75;;;;;;;;;;4849691;29;20033;-83
2021/12/23 13:37:17;;;;;;;28.10;14.85;;;;;;;;;;4853587;29;20033;-84
2021/12/23 13:39:49;;;;;;;30.90;15.95;;;;;;;;;;4853309;29;20030;-84
2021/12/23 13:42:20;;;;;;;35.67;16.95;;;;;;;;;;4850826;29;20033;-85
2021/12/23 13:44:51;;;;;;;32.03;16.00;;;;;;;;;;4852500;29;20033;-83
2021/12/23 13:47:22;;;;;;;34.53;16.35;;;;;;;;;;4851625;29;20060;-85
2021/12/23 13:49:54;;;;;;;37.08;17.70;;;;;;;;;;4851768;29;20025;-85
2021/12/23 13:52:52;;;;;;;33.17;15.38;;;;;;;;;;4848797;29;20045;-86
2021/12/23 13:55:29;;;;;;;35.60;16.40;;;;;;;;;;4854831;29;20029;-82
2021/12/23 13:58:10;;;;;;;;;;;;;;;;;;;;;
2021/12/23 14:00:51;;;;;;;32.85;16.40;;;;;;;;;;4851701;29;20523;-86
2021/12/23 14:03:22;;;;;;;35.60;16.75;;;;;;;;;;4855603;29;20025;-87
2021/12/23 14:09:52;;;;;;;33.13;15.93;;;;;;;;;;4854184;29;20045;-87
2021/12/23 14:12:56;;;;;;;35.72;18.25;;;;;;;;;;4862011;29;20059;-86
2021/12/23 14:15:27;;;;;;;33.15;16.48;;;;;;;;;;4861946;29;20043;-85
2021/12/23 14:23:57;;;;;;;34.20;15.93;;;;;;;;;;4856156;29;20441;-84
2021/12/23 14:26:29;;;;;;;32.10;16.05;;;;;;;;;;4857901;29;20030;-83
2021/12/23 14:29:40;;;;;;;;;;;;;;;;;;;;;
2021/12/23 14:33:02;;;;;;;32.20;15.80;;;;;;;;;;4831459;29;20049;-85
2021/12/23 14:35:41;;;;;;;;;;;;;;;;;;;;;
2021/12/23 14:38:27;;;;;;;33.85;16.65;;;;;;;;;;4809459;29;20043;-86
2021/12/23 14:41:02;;;;;;;36.20;17.88;;;;;;;;;;4778274;29;20126;-84
2021/12/23 14:43:44;;;;;;;35.53;16.95;;;;;;;;;;4834005;29;20043;-86
2021/12/23 14:46:10;;;;;;;35.35;16.85;;;;;;;;;;4866682;29;20039;-85
2021/12/23 14:48:56;;;;;;;33.97;17.63;;;;;;;;;;4852073;29;20032;-86
2021/12/23 14:51:25;;;;;;;35.92;16.73;;;;;;;;;;4859318;29;20033;-86
2021/12/23 14:54:30;;;;;;;33.22;16.75;;;;;;;;;;4853978;29;20044;-83
2021/12/23 14:57:32;;;;;;;33.92;16.67;;;;;;;;;;4851135;29;20644;-83
2021/12/23 15:00:36;;;;;;;30.02;16.17;;;;;;;;;;4820709;29;20445;-84
2021/12/23 15:03:05;;;;;;;32.25;17.45;;;;;;;;;;4854760;29;20045;-84
2021/12/23 15:06:05;;;;;;;35.03;17.67;;;;;;;;;;4863381;29;20052;-85
2021/12/23 15:08:33;;;;;;;33.50;17.45;;;;;;;;;;4828257;29;20140;-86
2021/12/23 15:11:10;;;;;;;30.60;16.65;;;;;;;;;;4842391;29;20042;-84
2021/12/23 15:16:34;;;;;;;34.40;18.30;;;;;;;;;;4836773;29;20050;-85
2021/12/23 15:19:27;;;;;;;;;;;;;;;;;;;;;
2021/12/23 15:23:03;;;;;;;39.13;19.07;;;;;;;;;;4818516;29;20041;-84
2021/12/23 15:25:37;;;;;;;33.63;16.52;;;;;;;;;;4766134;30;20300;-85
2021/12/23 15:31:07;;;;;;;35.17;16.88;;;;;;;;;;4823091;29;20132;-84
2021/12/23 15:33:36;;;;;;;32.58;16.63;;;;;;;;;;4841891;29;20037;-85
2021/12/23 15:36:13;;;;;;;32.90;16.63;;;;;;;;;;4838628;29;20026;-83
2021/12/23 15:38:38;;;;;;;31.88;16.33;;;;;;;;;;4841979;29;20045;-85
2021/12/23 15:41:08;;;;;;;31.50;16.92;;;;;;;;;;4836629;29;20294;-85
2021/12/23 15:43:39;;;;;;;34.10;17.52;;;;;;;;;;4837049;29;20430;-86
2021/12/23 15:46:08;;;;;;;32.40;17.42;;;;;;;;;;4838040;29;20052;-84
2021/12/23 15:48:41;;;;;;;35.50;17.23;;;;;;;;;;4827791;29;20030;-84
2021/12/23 15:51:10;;;;;;;32.83;16.95;;;;;;;;;;4847892;29;20060;-83
2021/12/23 15:53:44;;;;;;;34.22;18.08;;;;;;;;;;4838569;29;20517;-84
2021/12/23 15:56:11;;;;;;;31.17;16.80;;;;;;;;;;4836348;29;20021;-85
2021/12/23 15:58:43;;;;;;;32.33;17.27;;;;;;;;;;4845144;29;20021;-83
2021/12/23 16:01:11;;;;;;;37.97;17.98;;;;;;;;;;4837188;29;20521;-86
2021/12/23 16:03:45;;;;;;;32.97;16.55;;;;;;;;;;4840920;29;20540;-83
2021/12/23 16:09:12;;;;;;;36.95;17.98;;;;;;;;;;4874776;29;20206;-83
2021/12/23 16:11:45;;;;;;;32.55;16.13;;;;;;;;;;4878495;29;20052;-84
2021/12/23 16:14:15;;;;;;;31.67;16.73;;;;;;;;;;4866539;29;20032;-85
2021/12/23 16:16:44;;;;;;;34.75;16.63;;;;;;;;;;4875083;29;20433;-85
2021/12/23 16:19:16;;;;;;;36.15;18.40;;;;;;;;;;4861236;29;20089;-84
2021/12/23 16:21:44;;;;;;;35.88;16.55;;;;;;;;;;4860234;29;20033;-85
2021/12/23 16:24:16;;;;;;;33.08;18.02;;;;;;;;;;4871148;29;20024;-84
2021/12/23 16:26:44;;;;;;;37.38;19.45;;;;;;;;;;4860852;29;20432;-86
2021/12/23 16:29:16;;;;;;;36.17;17.83;;;;;;;;;;4881783;29;20188;-84
2021/12/23 16:31:48;;;;;;;35.00;18.88;;;;;;;;;;4876374;29;20044;-84
2021/12/23 16:34:17;;;;;;;38.75;19.38;;;;;;;;;;4876060;29;20041;-84
2021/12/23 16:36:49;;;;;;;40.65;19.75;;;;;;;;;;4868285;29;20449;-83
2021/12/23 16:39:17;;;;;;;36.45;18.95;;;;;;;;;;4868398;29;20033;-84
2021/12/23 16:41:52;;;;;;;38.47;19.92;;;;;;;;;;4877030;29;20059;-83
2021/12/23 16:44:17;;;;;;;31.80;17.98;;;;;;;;;;4859710;29;20449;-83
2021/12/23 16:46:48;;;;;;;38.60;18.95;;;;;;;;;;4867902;29;20090;-84
2021/12/23 16:49:18;;;;;;;37.55;18.77;;;;;;;;;;4860934;29;20041;-84
2021/12/23 16:51:47;;;;;;;39.97;19.45;;;;;;;;;;4843475;29;20033;-84
2021/12/23 16:54:15;;;;;;;42.03;18.65;;;;;;;;;;4857129;29;20115;-83
2021/12/23 16:59:30;;;;;;;42.40;19.35;;;;;;;;;;4870996;29;20090;-83